createdAt,value
2023-01-29T00:00:29.979Z,5.77
2023-01-29T00:03:32.892Z,5.77
2023-01-29T00:06:36.772Z,5.80
2023-01-29T00:09:40.000Z,5.81
2023-01-29T00:12:42.535Z,5.82
2023-01-29T00:15:53.990Z,5.80
2023-01-29T00:18:56.617Z,5.79
2023-01-29T00:22:00.484Z,5.79
2023-01-29T00:25:03.135Z,5.79
2023-01-29T00:28:06.127Z,5.79
2023-01-29T00:31:09.666Z,5.77
2023-01-29T00:34:12.235Z,5.78
2023-01-29T00:37:16.173Z,5.78
2023-01-29T00:40:19.107Z,5.76
2023-01-29T00:43:39.147Z,5.74
2023-01-29T00:46:41.734Z,5.73
2023-01-29T00:49:44.260Z,5.71
2023-01-29T00:52:49.610Z,5.71
2023-01-29T00:55:52.149Z,5.69
2023-01-29T00:58:54.702Z,5.71
2023-01-29T01:02:14.724Z,5.69
2023-01-29T01:05:18.788Z,5.66
2023-01-29T01:08:40.439Z,5.69
2023-01-29T01:11:42.956Z,5.69
2023-01-29T01:14:46.036Z,5.69
2023-01-29T01:17:49.565Z,5.71
2023-01-29T01:20:57.821Z,5.72
2023-01-29T01:24:01.777Z,5.72
2023-01-29T01:27:04.376Z,5.74
2023-01-29T01:30:09.611Z,5.73
2023-01-29T01:33:12.194Z,5.74
2023-01-29T01:36:15.840Z,5.73
2023-01-29T01:39:19.715Z,5.74
2023-01-29T01:42:22.333Z,5.74
2023-01-29T01:45:26.914Z,5.76
2023-01-29T01:48:29.528Z,5.77
2023-01-29T01:51:32.627Z,5.79
2023-01-29T01:54:36.500Z,5.80
2023-01-29T01:57:39.073Z,5.79
2023-01-29T02:00:41.668Z,5.79
2023-01-29T02:04:03.098Z,5.78
2023-01-29T02:07:23.399Z,5.75
2023-01-29T02:10:27.321Z,5.69
2023-01-29T02:13:29.845Z,5.67
2023-01-29T02:16:33.109Z,5.68
2023-01-29T02:19:40.611Z,5.66
2023-01-29T02:22:47.230Z,5.64
2023-01-29T02:26:21.414Z,5.59
2023-01-29T02:29:28.708Z,5.60
2023-01-29T02:32:32.390Z,5.60
2023-01-29T02:35:37.413Z,5.60
2023-01-29T02:38:42.774Z,5.60
2023-01-29T02:41:47.029Z,5.59
2023-01-29T02:44:53.245Z,5.62
2023-01-29T02:47:58.481Z,5.64
2023-01-29T02:51:03.510Z,5.66
2023-01-29T02:54:08.704Z,5.63
2023-01-29T02:57:14.752Z,5.60
2023-01-29T03:00:19.699Z,5.58
2023-01-29T03:03:24.484Z,5.57
2023-01-29T03:06:28.517Z,5.55
2023-01-29T03:09:34.042Z,5.46
2023-01-29T03:12:36.733Z,5.50
2023-01-29T03:15:42.465Z,5.51
2023-01-29T03:18:48.653Z,5.51
2023-01-29T03:21:55.239Z,5.41
2023-01-29T03:25:16.552Z,5.48
2023-01-29T03:28:36.912Z,5.45
2023-01-29T03:31:58.653Z,5.40
2023-01-29T03:35:03.924Z,5.36
2023-01-29T03:38:09.750Z,5.30
2023-01-29T03:41:19.385Z,5.32
2023-01-29T03:44:26.387Z,5.32
2023-01-29T03:47:34.496Z,5.32
2023-01-29T03:50:39.796Z,5.32
2023-01-29T03:53:44.158Z,5.33
2023-01-29T03:56:54.430Z,5.33
2023-01-29T03:59:58.884Z,5.31
2023-01-29T04:03:05.381Z,5.30
2023-01-29T04:06:12.394Z,5.27
2023-01-29T04:09:16.895Z,5.27
2023-01-29T04:12:21.155Z,5.27
2023-01-29T04:15:23.835Z,5.29
2023-01-29T04:18:27.779Z,5.29
2023-01-29T04:21:31.763Z,5.29
2023-01-29T04:24:34.367Z,5.28
2023-01-29T04:27:41.625Z,5.30
2023-01-29T04:30:46.615Z,5.30
2023-01-29T04:33:53.855Z,5.31
2023-01-29T04:37:03.571Z,5.27
2023-01-29T04:40:13.972Z,5.32
2023-01-29T04:43:19.062Z,5.26
2023-01-29T04:46:23.527Z,5.33
2023-01-29T04:49:34.292Z,5.30
2023-01-29T04:52:40.378Z,5.32
2023-01-29T04:55:44.856Z,5.31
2023-01-29T04:58:48.494Z,5.30
2023-01-29T05:01:51.037Z,5.27
2023-01-29T05:04:55.085Z,5.28
2023-01-29T05:07:57.682Z,5.29
2023-01-29T05:11:00.427Z,5.28
2023-01-29T05:14:03.758Z,5.28
2023-01-29T05:17:08.677Z,5.33
2023-01-29T05:20:13.488Z,5.32
2023-01-29T05:23:17.068Z,5.32
2023-01-29T05:26:37.193Z,5.32
2023-01-29T05:29:40.163Z,5.32
2023-01-29T05:32:42.741Z,5.34
2023-01-29T05:35:46.988Z,5.33
2023-01-29T05:38:49.809Z,5.36
2023-01-29T05:41:52.383Z,5.35
2023-01-29T05:44:55.040Z,5.34
2023-01-29T05:47:57.939Z,5.35
2023-01-29T05:51:02.299Z,5.36
2023-01-29T05:54:05.088Z,5.35
2023-01-29T05:57:07.624Z,5.36
2023-01-29T06:00:13.029Z,5.37
2023-01-29T06:03:16.052Z,5.40
2023-01-29T06:06:19.991Z,5.41
2023-01-29T06:09:22.573Z,5.41
2023-01-29T06:12:25.148Z,5.42
2023-01-29T06:15:27.733Z,5.42
2023-01-29T06:18:30.258Z,5.43
2023-01-29T06:21:34.176Z,5.42
2023-01-29T06:24:37.264Z,5.42
2023-01-29T06:27:39.832Z,5.41
2023-01-29T06:30:42.450Z,5.39
2023-01-29T06:33:45.035Z,5.39
2023-01-29T06:36:48.953Z,5.38
2023-01-29T06:39:51.527Z,5.38
2023-01-29T06:42:54.114Z,5.37
2023-01-29T06:45:57.503Z,5.38
2023-01-29T06:49:01.055Z,5.38
2023-01-29T06:52:05.128Z,5.36
2023-01-29T06:55:08.580Z,5.32
2023-01-29T06:58:12.633Z,5.36
2023-01-29T07:01:29.288Z,5.34
2023-01-29T07:04:37.702Z,5.34
2023-01-29T07:07:41.591Z,5.32
2023-01-29T07:10:44.162Z,5.34
2023-01-29T07:13:46.753Z,5.32
2023-01-29T07:16:49.326Z,5.34
2023-01-29T07:19:51.857Z,5.35
2023-01-29T07:22:55.747Z,5.37
2023-01-29T07:26:01.004Z,5.35
2023-01-29T07:29:03.615Z,5.36
2023-01-29T07:32:07.693Z,5.37
2023-01-29T07:35:10.570Z,5.36
2023-01-29T07:38:14.506Z,5.36
2023-01-29T07:41:17.073Z,5.35
2023-01-29T07:44:19.599Z,5.38
2023-01-29T07:47:22.167Z,5.38
2023-01-29T07:50:24.928Z,5.37
2023-01-29T07:53:29.070Z,5.35
2023-01-29T07:56:31.649Z,5.37
2023-01-29T07:59:34.234Z,5.38
2023-01-29T08:02:36.876Z,5.38
2023-01-29T08:05:39.503Z,5.38
2023-01-29T08:08:43.407Z,5.39
2023-01-29T08:11:45.935Z,5.39
2023-01-29T08:14:48.533Z,5.40
2023-01-29T08:17:57.769Z,5.41
2023-01-29T08:21:01.795Z,5.40
2023-01-29T08:24:06.484Z,5.40
2023-01-29T08:27:09.107Z,5.37
2023-01-29T08:30:12.954Z,5.38
2023-01-29T08:33:17.564Z,5.38
2023-01-29T08:36:20.341Z,5.38
2023-01-29T08:39:24.278Z,5.39
2023-01-29T08:42:26.890Z,5.41
2023-01-29T08:45:30.085Z,5.42
2023-01-29T08:48:33.211Z,5.42
2023-01-29T08:51:35.796Z,5.44
2023-01-29T08:54:39.737Z,5.46
2023-01-29T08:57:42.325Z,5.46
2023-01-29T09:00:45.038Z,5.46
2023-01-29T09:03:47.640Z,5.49
2023-01-29T09:06:50.236Z,5.51
2023-01-29T09:09:55.250Z,5.49
2023-01-29T09:12:57.770Z,5.53
2023-01-29T09:16:01.102Z,5.53
2023-01-29T09:19:03.687Z,5.54
2023-01-29T09:22:06.305Z,5.55
2023-01-29T09:25:10.735Z,5.58
2023-01-29T09:28:13.349Z,5.59
2023-01-29T09:31:15.972Z,5.58
2023-01-29T09:34:18.626Z,5.57
2023-01-29T09:37:23.133Z,5.59
2023-01-29T09:40:27.947Z,5.60
2023-01-29T09:43:37.196Z,5.59
2023-01-29T09:46:41.026Z,5.64
2023-01-29T09:49:46.703Z,5.64
2023-01-29T09:52:51.635Z,5.66
2023-01-29T09:55:57.375Z,5.66
2023-01-29T09:59:01.658Z,5.67
2023-01-29T10:02:09.903Z,5.69
2023-01-29T10:05:22.265Z,5.66
2023-01-29T10:08:42.359Z,5.67
2023-01-29T10:11:47.665Z,5.67
2023-01-29T10:14:54.343Z,5.69
2023-01-29T10:18:07.359Z,5.73
2023-01-29T10:21:18.016Z,5.73
2023-01-29T10:24:25.299Z,5.72
2023-01-29T10:27:32.935Z,5.72
2023-01-29T10:30:38.143Z,5.72
2023-01-29T10:34:01.007Z,5.69
2023-01-29T10:37:09.359Z,5.67
2023-01-29T10:40:19.825Z,5.66
2023-01-29T10:43:27.920Z,5.65
2023-01-29T10:46:37.728Z,5.63
2023-01-29T10:49:50.227Z,5.64
2023-01-29T10:53:04.697Z,5.67
2023-01-29T10:56:22.351Z,5.67
2023-01-29T10:59:37.770Z,5.68
2023-01-29T11:02:44.812Z,5.73
2023-01-29T11:05:51.424Z,5.75
2023-01-29T11:08:55.414Z,5.78
2023-01-29T11:11:58.884Z,5.80
2023-01-29T11:15:04.151Z,5.83
2023-01-29T11:18:10.569Z,5.86
2023-01-29T11:21:13.141Z,5.88
2023-01-29T11:24:17.514Z,5.93
2023-01-29T11:27:25.722Z,5.91
2023-01-29T11:30:30.031Z,5.90
2023-01-29T11:33:32.643Z,5.95
2023-01-29T11:36:37.983Z,5.95
2023-01-29T11:39:40.514Z,5.98
2023-01-29T11:42:43.080Z,6.00
2023-01-29T11:45:47.094Z,6.00
2023-01-29T11:48:51.540Z,6.00
2023-01-29T11:51:54.336Z,6.03
2023-01-29T11:54:58.268Z,6.05
2023-01-29T11:58:02.875Z,6.03
2023-01-29T12:01:06.923Z,6.03
2023-01-29T12:04:16.218Z,6.06
2023-01-29T12:07:19.175Z,6.07
2023-01-29T12:10:32.743Z,6.08
2023-01-29T12:13:36.042Z,6.08
2023-01-29T12:16:41.138Z,6.10
2023-01-29T12:19:45.513Z,6.08
2023-01-29T12:22:51.369Z,6.13
2023-01-29T12:25:58.015Z,6.13
2023-01-29T12:29:25.172Z,6.16
2023-01-29T12:32:33.135Z,6.14
2023-01-29T12:35:37.554Z,6.22
2023-01-29T12:38:40.956Z,6.23
2023-01-29T12:41:46.127Z,6.22
2023-01-29T12:44:50.803Z,6.23
2023-01-29T12:47:56.489Z,6.20
2023-01-29T12:51:02.335Z,6.23
2023-01-29T12:54:06.100Z,6.27
2023-01-29T12:57:10.991Z,6.29
2023-01-29T13:00:15.528Z,6.30
2023-01-29T13:03:22.018Z,6.31
2023-01-29T13:06:27.413Z,6.31
2023-01-29T13:09:31.026Z,6.27
2023-01-29T13:12:33.572Z,6.26
2023-01-29T13:15:36.782Z,6.28
2023-01-29T13:18:44.113Z,6.28
2023-01-29T13:21:46.657Z,6.31
2023-01-29T13:24:58.758Z,6.29
2023-01-29T13:28:06.473Z,6.30
2023-01-29T13:31:21.705Z,6.32
2023-01-29T13:34:26.372Z,6.32
2023-01-29T13:37:31.772Z,6.30
2023-01-29T13:40:35.471Z,6.33
2023-01-29T13:43:39.247Z,6.31
2023-01-29T13:46:42.182Z,6.31
2023-01-29T13:49:46.985Z,6.30
2023-01-29T13:52:54.307Z,6.31
2023-01-29T13:55:56.870Z,6.32
2023-01-29T13:58:59.666Z,6.29
2023-01-29T14:02:04.728Z,6.30
2023-01-29T14:05:42.552Z,6.31
2023-01-29T14:08:45.252Z,6.30
2023-01-29T14:11:48.975Z,6.32
2023-01-29T14:14:52.801Z,6.31
2023-01-29T14:17:56.969Z,6.27
2023-01-29T14:21:04.976Z,6.27
2023-01-29T14:24:12.695Z,6.28
2023-01-29T14:27:20.373Z,6.31
2023-01-29T14:30:28.830Z,6.28
2023-01-29T14:33:35.479Z,6.33
2023-01-29T14:36:42.659Z,6.32
2023-01-29T14:39:45.933Z,6.31
2023-01-29T14:42:55.975Z,6.31
2023-01-29T14:45:58.516Z,6.30
2023-01-29T14:49:01.063Z,6.26
2023-01-29T14:52:05.028Z,6.24
2023-01-29T14:55:08.896Z,6.21
2023-01-29T14:58:13.799Z,6.22
2023-01-29T15:01:20.265Z,6.21
2023-01-29T15:04:24.574Z,6.21
2023-01-29T15:07:31.727Z,6.21
2023-01-29T15:10:41.251Z,6.18
2023-01-29T15:13:46.304Z,6.16
2023-01-29T15:16:53.104Z,6.13
2023-01-29T15:19:56.742Z,6.11
2023-01-29T15:23:00.860Z,6.12
2023-01-29T15:26:05.440Z,6.08
2023-01-29T15:29:07.976Z,6.07
2023-01-29T15:32:14.530Z,6.09
2023-01-29T15:35:25.840Z,6.07
2023-01-29T15:38:29.822Z,6.05
2023-01-29T15:41:32.363Z,6.04
2023-01-29T15:44:34.988Z,6.05
2023-01-29T15:47:37.612Z,6.08
2023-01-29T15:50:41.309Z,6.07
2023-01-29T15:53:46.945Z,6.08
2023-01-29T15:56:51.254Z,6.02
2023-01-29T15:59:54.773Z,6.08
2023-01-29T16:02:57.596Z,6.08
2023-01-29T16:06:00.245Z,6.10
2023-01-29T16:09:04.595Z,6.11
2023-01-29T16:12:07.496Z,6.10
2023-01-29T16:15:24.334Z,6.12
2023-01-29T16:18:30.197Z,6.08
2023-01-29T16:21:33.911Z,6.08
2023-01-29T16:24:38.317Z,6.11
2023-01-29T16:27:43.174Z,6.11
2023-01-29T16:30:45.732Z,6.11
2023-01-29T16:33:49.510Z,6.11
2023-01-29T16:36:53.511Z,6.13
2023-01-29T16:39:58.332Z,6.14
2023-01-29T16:43:31.351Z,6.16
2023-01-29T16:46:37.172Z,6.14
2023-01-29T16:49:44.784Z,6.13
2023-01-29T16:52:57.524Z,6.16
2023-01-29T16:56:04.901Z,6.14
2023-01-29T16:59:07.595Z,6.15
2023-01-29T17:02:14.544Z,6.13
2023-01-29T17:05:20.563Z,6.15
2023-01-29T17:08:24.639Z,6.14
2023-01-29T17:11:32.734Z,6.16
2023-01-29T17:14:35.940Z,6.17
2023-01-29T17:17:38.567Z,6.15
2023-01-29T17:20:41.154Z,6.16
2023-01-29T17:23:43.723Z,6.20
2023-01-29T17:26:47.683Z,6.17
2023-01-29T17:29:52.060Z,6.15
2023-01-29T17:32:55.209Z,6.15
2023-01-29T17:35:57.757Z,6.15
2023-01-29T17:39:01.100Z,6.12
2023-01-29T17:42:05.205Z,6.12
2023-01-29T17:45:08.796Z,6.10
2023-01-29T17:48:13.203Z,6.12
2023-01-29T17:51:16.610Z,6.11
2023-01-29T17:54:19.142Z,6.08
2023-01-29T17:57:23.067Z,6.06
2023-01-29T18:00:25.850Z,6.05
2023-01-29T18:03:28.471Z,6.05
2023-01-29T18:06:31.028Z,6.04
2023-01-29T18:09:33.553Z,6.02
2023-01-29T18:12:37.428Z,6.04
2023-01-29T18:15:40.093Z,6.02
2023-01-29T18:18:42.701Z,6.03
2023-01-29T18:21:45.283Z,6.05
2023-01-29T18:24:47.879Z,6.04
2023-01-29T18:27:51.766Z,6.04
2023-01-29T18:30:54.333Z,6.05
2023-01-29T18:33:56.966Z,6.02
2023-01-29T18:37:00.215Z,6.03
2023-01-29T18:40:02.798Z,6.02
2023-01-29T18:43:06.671Z,6.02
2023-01-29T18:46:09.321Z,6.03
2023-01-29T18:49:11.878Z,6.04
2023-01-29T18:52:14.460Z,6.02
2023-01-29T18:55:17.512Z,6.02
2023-01-29T18:58:26.624Z,6.06
2023-01-29T19:01:36.421Z,6.07
2023-01-29T19:04:38.951Z,6.07
2023-01-29T19:07:41.498Z,6.12
2023-01-29T19:10:44.320Z,6.07
2023-01-29T19:13:49.736Z,6.09
2023-01-29T19:16:52.306Z,6.10
2023-01-29T19:19:56.491Z,6.11
2023-01-29T19:22:59.500Z,6.12
2023-01-29T19:26:02.062Z,6.15
2023-01-29T19:29:07.493Z,6.16
2023-01-29T19:32:11.572Z,6.18
2023-01-29T19:35:14.161Z,6.17
2023-01-29T19:38:20.918Z,6.17
2023-01-29T19:41:23.528Z,6.19
2023-01-29T19:44:27.496Z,6.20
2023-01-29T19:47:30.105Z,6.23
2023-01-29T19:50:32.718Z,6.28
2023-01-29T19:53:35.522Z,6.32
2023-01-29T19:56:38.053Z,6.36
2023-01-29T19:59:45.593Z,6.39
2023-01-29T20:02:48.499Z,6.42
2023-01-29T20:05:51.062Z,6.46
2023-01-29T20:08:53.625Z,6.51
2023-01-29T20:11:56.225Z,6.53
2023-01-29T20:15:00.151Z,6.58
2023-01-29T20:18:03.822Z,6.62
2023-01-29T20:21:07.154Z,6.66
2023-01-29T20:24:12.360Z,6.69
2023-01-29T20:27:14.958Z,6.72
2023-01-29T20:30:19.565Z,6.78
2023-01-29T20:33:22.309Z,6.84
2023-01-29T20:36:24.863Z,6.86
2023-01-29T20:39:27.388Z,6.92
2023-01-29T20:42:29.905Z,6.94
2023-01-29T20:45:35.896Z,7.00
2023-01-29T20:48:38.579Z,7.02
2023-01-29T20:51:41.139Z,7.07
2023-01-29T20:54:43.835Z,7.08
2023-01-29T20:57:46.547Z,7.12
2023-01-29T21:01:10.689Z,7.14
2023-01-29T21:04:13.269Z,7.17
2023-01-29T21:07:15.856Z,7.21
2023-01-29T21:10:18.779Z,7.27
2023-01-29T21:13:21.508Z,7.37
2023-01-29T21:16:26.915Z,7.50
2023-01-29T21:19:30.820Z,7.62
2023-01-29T21:22:33.361Z,7.75
2023-01-29T21:25:35.962Z,7.84
2023-01-29T21:28:38.543Z,7.94
2023-01-29T21:31:42.544Z,8.03
2023-01-29T21:34:45.189Z,8.11
2023-01-29T21:37:47.740Z,8.17
2023-01-29T21:40:50.270Z,8.23
2023-01-29T21:43:52.850Z,8.29
2023-01-29T21:46:56.812Z,8.31
2023-01-29T21:49:59.372Z,8.34
2023-01-29T21:53:02.014Z,8.35
2023-01-29T21:56:05.039Z,8.37
2023-01-29T21:59:07.630Z,8.40
2023-01-29T22:02:13.566Z,8.45
2023-01-29T22:05:19.640Z,8.48
2023-01-29T22:08:25.484Z,8.50
2023-01-29T22:11:28.330Z,8.51
2023-01-29T22:14:30.906Z,8.54
2023-01-29T22:17:35.221Z,8.54
2023-01-29T22:20:37.919Z,8.56
2023-01-29T22:23:40.513Z,8.57
2023-01-29T22:26:44.159Z,8.61
2023-01-29T22:29:46.829Z,8.61
2023-01-29T22:32:51.005Z,8.62
2023-01-29T22:35:54.611Z,8.64
2023-01-29T22:38:57.178Z,8.65
2023-01-29T22:41:59.763Z,8.67
2023-01-29T22:45:02.339Z,8.69
2023-01-29T22:48:08.188Z,8.71
2023-01-29T22:51:10.833Z,8.73
2023-01-29T22:54:15.363Z,8.75
2023-01-29T22:57:17.951Z,8.76
2023-01-29T23:00:21.321Z,8.79
2023-01-29T23:03:25.328Z,8.81
2023-01-29T23:06:27.860Z,8.85
2023-01-29T23:09:30.435Z,8.88
2023-01-29T23:12:32.995Z,8.89
2023-01-29T23:15:35.573Z,8.90
2023-01-29T23:18:39.669Z,8.92
2023-01-29T23:21:42.189Z,8.95
2023-01-29T23:24:44.764Z,8.95
2023-01-29T23:27:46.719Z,8.97
2023-01-29T23:30:51.964Z,8.97
2023-01-29T23:33:56.265Z,8.98
2023-01-29T23:36:58.933Z,8.99
2023-01-29T23:40:01.552Z,8.99
2023-01-29T23:43:04.122Z,9.00
2023-01-29T23:46:07.134Z,8.99
2023-01-29T23:49:11.021Z,8.99
2023-01-29T23:52:13.603Z,8.99
2023-01-29T23:55:16.219Z,8.99
2023-01-29T23:58:18.804Z,8.99
